Time;durP1;ratioP1;P1;durP2;ratioP2;P2;SDS_P1;SDS_P2;PMS_P1;PMS_P2;Temp;Humidity;BMP_temperature;BMP_pressure;BME280_temperature;BME280_humidity;BME280_pressure;Samples;Min_cycle;Max_cycle;Signal;HPM_P1;HPM_P2
2022/01/16 00:00:40;;;;;;;1.05;0.81;;;;;;;0.02;64.47;100190.80;434897;119;922666;-78
2022/01/16 00:04:13;;;;;;;0.91;0.77;;;;;;;-0.02;64.19;100187.60;439110;118;922566;-79
2022/01/16 00:05:14;;;;;;;1.79;0.87;;;;;;;-0.04;64.12;100186.91;438800;120;923053;-77
2022/01/16 00:06:17;;;;;;;2.12;1.19;;;;;;;-0.05;64.29;100193.25;439702;120;923227;-76
2022/01/16 00:07:21;;;;;;;1.07;0.83;;;;;;;-0.05;64.28;100189.73;439002;120;922710;-77
2022/01/16 00:08:24;;;;;;;1.02;0.93;;;;;;;-0.05;64.21;100189.73;439099;118;922640;-78
2022/01/16 00:09:28;;;;;;;0.92;0.82;;;;;;;-0.06;64.25;100193.44;438953;119;923128;-77
2022/01/16 00:10:32;;;;;;;1.15;1.02;;;;;;;-0.05;64.21;100197.77;439316;120;922886;-77
2022/01/16 00:11:35;;;;;;;1.12;0.92;;;;;;;-0.06;64.04;100191.59;439115;119;922688;-77
2022/01/16 00:12:38;;;;;;;1.36;1.02;;;;;;;-0.06;64.01;100186.24;439404;118;922622;-76
2022/01/16 00:13:42;;;;;;;1.09;1.00;;;;;;;-0.06;64.07;100190.76;439440;118;930234;-77
2022/01/16 00:14:47;;;;;;;2.03;0.83;;;;;;;-0.08;64.03;100185.55;444795;117;922676;-77
2022/01/16 00:15:51;;;;;;;0.75;0.68;;;;;;;-0.08;63.90;100192.73;434990;122;922752;-77
2022/01/16 00:16:54;;;;;;;1.96;0.81;;;;;;;-0.09;64.00;100196.41;439042;118;923461;-77
2022/01/16 00:19:09;;;;;;;1.07;0.99;;;;;;;-0.09;63.95;100201.77;439703;120;922648;-78
2022/01/16 00:20:13;;;;;;;1.42;1.21;;;;;;;-0.09;64.03;100207.97;439896;120;923604;-78
2022/01/16 00:21:22;;;;;;;1.35;1.07;;;;;;;-0.09;64.24;100202.61;439058;118;922737;-78
2022/01/16 00:22:30;;;;;;;2.33;1.07;;;;;;;-0.07;64.27;100205.99;439200;118;922658;-76
2022/01/16 00:23:31;;;;;;;1.34;1.05;;;;;;;-0.05;64.05;100206.66;438471;120;923082;-76
2022/01/16 00:24:34;;;;;;;0.93;0.80;;;;;;;-0.04;64.07;100204.81;439177;119;922655;-77
2022/01/16 00:25:38;;;;;;;1.17;0.93;;;;;;;-0.03;64.09;100207.36;439256;118;922678;-77
2022/01/16 00:26:41;;;;;;;1.14;1.04;;;;;;;-0.02;63.97;100214.41;438167;118;922741;-79
2022/01/16 00:27:45;;;;;;;1.55;1.01;;;;;;;-0.02;63.94;100216.23;436673;121;930302;-76
2022/01/16 00:28:50;;;;;;;0.82;0.79;;;;;;;-0.03;63.84;100214.55;443699;119;923176;-77
2022/01/16 00:29:53;;;;;;;5.20;1.52;;;;;;;-0.03;63.67;100214.55;431326;119;922614;-77
2022/01/16 00:30:57;;;;;;;1.04;0.93;;;;;;;-0.05;63.70;100214.70;442684;118;930720;-76
2022/01/16 00:32:01;;;;;;;1.44;1.13;;;;;;;-0.06;63.73;100214.88;423664;123;923406;-78
2022/01/16 00:33:04;;;;;;;1.08;0.86;;;;;;;-0.07;63.83;100211.34;444054;115;922868;-77
2022/01/16 00:34:08;;;;;;;0.94;0.81;;;;;;;-0.06;63.87;100201.48;451736;116;922885;-76
2022/01/16 00:35:13;;;;;;;1.14;1.02;;;;;;;-0.06;63.75;100201.48;450880;115;922646;-78
2022/01/16 00:36:19;;;;;;;0.73;0.73;;;;;;;-0.06;63.71;100198.80;450852;116;930224;-77
2022/01/16 00:37:22;;;;;;;1.44;0.69;;;;;;;-0.06;63.59;100201.48;451721;116;922788;-77
2022/01/16 00:38:26;;;;;;;0.78;0.66;;;;;;;-0.07;63.61;100203.31;451824;115;922624;-77
2022/01/16 00:39:30;;;;;;;0.84;0.74;;;;;;;-0.06;63.55;100209.52;451515;116;930287;-77
2022/01/16 00:40:34;;;;;;;0.95;0.78;;;;;;;-0.06;63.59;100196.11;451157;116;923080;-78
2022/01/16 00:41:37;;;;;;;1.48;1.11;;;;;;;-0.05;63.58;100189.73;451713;116;922686;-77
2022/01/16 00:42:40;;;;;;;1.67;0.90;;;;;;;-0.04;63.41;100188.73;452081;116;923006;-77
2022/01/16 00:43:46;;;;;;;1.17;0.94;;;;;;;-0.04;63.40;100184.23;450406;117;922589;-76
2022/01/16 00:44:50;;;;;;;1.09;0.94;;;;;;;-0.04;63.37;100194.09;451246;116;923025;-77
2022/01/16 00:45:54;;;;;;;1.35;0.98;;;;;;;-0.04;63.37;100196.78;443353;119;923269;-78
2022/01/16 00:46:57;;;;;;;1.54;1.03;;;;;;;-0.05;63.26;100203.13;443259;117;930452;-77
2022/01/16 00:48:05;;;;;;;2.23;0.86;;;;;;;-0.07;63.25;100205.14;451224;116;930340;-78
2022/01/16 00:49:08;;;;;;;0.74;0.73;;;;;;;-0.07;63.32;100208.67;451024;116;922786;-76
2022/01/16 00:50:13;;;;;;;0.98;0.54;;;;;;;-0.06;63.25;100220.23;451486;117;923582;-77
2022/01/16 00:51:17;;;;;;;0.82;0.69;;;;;;;-0.06;63.23;100212.20;452192;116;922605;-77
2022/01/16 00:52:20;;;;;;;0.95;0.69;;;;;;;-0.06;63.32;100220.23;450048;116;922676;-77
2022/01/16 00:53:24;;;;;;;1.01;0.88;;;;;;;-0.07;63.27;100215.86;449789;115;923316;-77
2022/01/16 00:54:27;;;;;;;1.77;0.76;;;;;;;-0.08;63.22;100223.06;451354;116;930207;-77
2022/01/16 00:55:32;;;;;;;0.92;0.88;;;;;;;-0.09;63.24;100225.89;450661;115;922665;-76
2022/01/16 00:56:35;;;;;;;0.93;0.77;;;;;;;-0.10;63.20;100225.04;450610;115;923247;-77
2022/01/16 00:57:39;;;;;;;1.21;0.81;;;;;;;-0.11;63.03;100225.22;450151;116;922628;-77
2022/01/16 00:58:42;;;;;;;1.12;0.64;;;;;;;-0.11;63.20;100222.54;451113;115;922553;-77
2022/01/16 00:59:45;;;;;;;0.71;0.71;;;;;;;-0.12;63.25;100226.21;452317;117;923185;-77
2022/01/16 01:00:48;;;;;;;0.80;0.73;;;;;;;-0.12;63.26;100218.17;451394;116;923238;-76
2022/01/16 01:01:52;;;;;;;1.05;0.95;;;;;;;-0.10;63.35;100224.20;450589;116;923126;-77
2022/01/16 01:02:55;;;;;;;0.98;0.90;;;;;;;-0.11;63.36;100215.31;442127;118;923152;-76
2022/01/16 01:03:59;;;;;;;1.07;0.70;;;;;;;-0.10;63.41;100225.04;444339;117;923014;-77
2022/01/16 01:05:03;;;;;;;0.83;0.73;;;;;;;-0.09;63.42;100226.73;451958;115;923182;-77
2022/01/16 01:06:06;;;;;;;0.85;0.85;;;;;;;-0.08;63.40;100225.73;450828;116;930206;-78
2022/01/16 01:07:10;;;;;;;1.98;0.92;;;;;;;-0.07;63.58;100223.91;451976;115;922572;-78
2022/01/16 01:08:15;;;;;;;1.04;0.88;;;;;;;-0.06;63.62;100217.55;451270;116;930386;-76
2022/01/16 01:09:19;;;;;;;0.96;0.84;;;;;;;-0.04;63.51;100223.58;451799;117;922920;-76
2022/01/16 01:10:31;;;;;;;1.28;0.82;;;;;;;-0.03;63.58;100217.23;451122;117;930303;-76
2022/01/16 01:11:31;;;;;;;2.66;1.08;;;;;;;-0.02;63.57;100218.92;450699;115;928913;-76
2022/01/16 01:12:53;;;;;;;2.57;1.48;;;;;;;-0.01;63.57;100228.64;450588;116;922530;-76
2022/01/16 01:15:09;;;;;;;2.56;1.33;;;;;;;-0.01;63.48;100239.36;451477;116;922658;-76
2022/01/16 01:16:16;;;;;;;1.80;1.32;;;;;;;-0.02;63.47;100237.67;450859;115;922811;-77
2022/01/16 01:17:23;;;;;;;2.74;2.01;;;;;;;-0.04;63.48;100239.66;450976;116;922709;-77
2022/01/16 01:18:23;;;;;;;3.21;2.04;;;;;;;-0.05;63.55;100235.29;451835;116;923735;-77
2022/01/16 01:19:32;;;;;;;2.33;1.61;;;;;;;-0.06;63.73;100245.20;450278;116;922642;-77
2022/01/16 01:20:34;;;;;;;1.90;1.43;;;;;;;-0.05;63.52;100246.01;450938;116;922558;-77
2022/01/16 01:21:38;;;;;;;2.18;1.89;;;;;;;-0.05;63.56;100251.37;451129;116;922630;-77
2022/01/16 01:22:42;;;;;;;2.46;1.42;;;;;;;-0.05;63.63;100260.25;452094;116;922601;-77
2022/01/16 01:23:45;;;;;;;3.16;1.78;;;;;;;-0.03;63.59;100268.99;449894;116;923442;-77
2022/01/16 01:24:51;;;;;;;1.54;1.42;;;;;;;-0.03;63.27;100271.67;450635;116;930485;-77
2022/01/16 01:25:54;;;;;;;2.17;1.20;;;;;;;-0.01;63.38;100276.89;452617;116;922491;-77
2022/01/16 01:28:08;;;;;;;1.44;1.09;;;;;;;-0.01;63.39;100284.92;451747;114;922910;-76
2022/01/16 01:29:16;;;;;;;1.04;0.91;;;;;;;0.00;63.36;100291.98;453097;114;922756;-76
2022/01/16 01:30:20;;;;;;;1.18;0.84;;;;;;;0.02;63.23;100294.48;452646;115;922689;-76
2022/01/16 01:31:29;;;;;;;1.67;1.19;;;;;;;0.03;63.35;100314.93;453629;116;923222;-76
2022/01/16 01:32:36;;;;;;;1.23;1.12;;;;;;;0.04;63.28;100338.91;453255;114;923093;-76
2022/01/16 01:33:38;;;;;;;1.14;0.95;;;;;;;0.05;63.21;100359.36;452853;116;922735;-74
2022/01/16 01:34:42;;;;;;;1.41;1.29;;;;;;;0.07;63.10;100365.39;452725;114;923175;-75
2022/01/16 01:35:45;;;;;;;1.14;1.04;;;;;;;0.07;63.17;100369.91;453811;116;922615;-74
2022/01/16 01:36:49;;;;;;;1.11;0.99;;;;;;;0.08;63.12;100372.44;453079;116;922680;-75
2022/01/16 01:37:53;;;;;;;1.43;1.29;;;;;;;0.09;63.15;100394.73;451508;116;930495;-75
2022/01/16 01:38:57;;;;;;;1.96;1.17;;;;;;;0.09;63.25;100408.98;453220;116;923288;-74
2022/01/16 01:40:03;;;;;;;1.71;1.22;;;;;;;0.10;63.27;100429.44;452971;116;923012;-76
2022/01/16 01:41:06;;;;;;;1.22;1.04;;;;;;;0.12;63.31;100414.02;453458;114;930413;-75
2022/01/16 01:42:12;;;;;;;1.29;1.18;;;;;;;0.14;63.05;100363.80;453514;114;922544;-79
2022/01/16 01:51:19;;;;;;;1.01;0.77;;;;;;;0.18;62.94;100198.10;453556;114;923554;-76
2022/01/16 01:52:22;;;;;;;1.83;0.90;;;;;;;0.17;62.81;100186.53;451385;116;923048;-76
2022/01/16 01:53:25;;;;;;;1.13;0.90;;;;;;;0.17;62.84;100197.26;453044;116;922487;-76
2022/01/16 01:54:30;;;;;;;0.82;0.78;;;;;;;0.16;62.66;100186.72;453611;114;930191;-76
2022/01/16 01:55:34;;;;;;;1.34;1.02;;;;;;;0.16;62.80;100198.28;453461;114;922676;-76
2022/01/16 01:56:38;;;;;;;0.91;0.80;;;;;;;0.16;62.75;100214.37;453181;116;922562;-76
2022/01/16 01:57:42;;;;;;;1.20;0.97;;;;;;;0.16;62.86;100218.89;453289;115;922602;-76
2022/01/16 01:58:45;;;;;;;1.17;0.88;;;;;;;0.16;62.89;100245.70;452596;114;922791;-76
2022/01/16 01:59:49;;;;;;;1.09;0.91;;;;;;;0.17;62.88;100263.44;453520;114;930256;-76
2022/01/16 02:00:52;;;;;;;1.21;0.95;;;;;;;0.16;63.01;100300.16;452855;115;922561;-76
2022/01/16 02:01:56;;;;;;;1.77;0.97;;;;;;;0.19;63.00;100317.75;452560;116;922632;-76
2022/01/16 02:04:20;;;;;;;1.39;0.79;;;;;;;0.18;62.86;100332.98;452103;116;930277;-75
2022/01/16 02:05:23;;;;;;;1.39;1.10;;;;;;;0.21;63.07;100321.13;453538;116;930467;-76
2022/01/16 02:06:29;;;;;;;1.15;0.90;;;;;;;0.21;63.18;100292.48;453103;116;930170;-76
2022/01/16 02:07:32;;;;;;;1.00;0.94;;;;;;;0.22;63.21;100278.05;453333;114;922626;-76
2022/01/16 02:08:37;;;;;;;1.67;1.14;;;;;;;0.24;63.26;100267.19;452798;116;922656;-76
2022/01/16 02:09:40;;;;;;;1.85;1.15;;;;;;;0.24;63.25;100262.67;453234;115;922926;-76
2022/01/16 02:10:43;;;;;;;0.81;0.74;;;;;;;0.24;63.27;100278.75;453115;114;922575;-76
2022/01/16 02:11:48;;;;;;;0.96;0.79;;;;;;;0.22;63.59;100278.05;452653;116;930147;-76
2022/01/16 02:12:59;;;;;;;1.03;0.88;;;;;;;0.22;63.55;100312.91;452317;116;923478;-77
2022/01/16 02:15:31;;;;;;;1.19;0.88;;;;;;;0.19;63.96;100320.43;453702;116;923784;-77
2022/01/16 02:30:32;;;;;;;0.83;0.78;;;;;;;0.09;64.29;100314.31;453034;116;922593;-77
2022/01/16 02:31:03;;;;;;;0.83;0.83;;;;;;;0.07;64.32;100306.42;450068;116;923313;-77
2022/01/16 02:35:37;;;;;;;0.60;0.60;;;;;;;0.11;64.05;100298.94;453787;116;922729;-78
2022/01/16 02:36:50;;;;;;;0.67;0.67;;;;;;;0.12;64.04;100311.31;452894;114;923461;-76
2022/01/16 02:37:52;;;;;;;0.98;0.87;;;;;;;0.11;64.02;100302.42;453142;115;922589;-77
2022/01/16 02:39:00;;;;;;;0.79;0.79;;;;;;;0.12;64.06;100308.63;453966;116;922650;-77
2022/01/16 02:40:12;;;;;;;1.08;0.91;;;;;;;0.13;63.98;100316.53;437641;120;922857;-76
2022/01/16 02:41:13;;;;;;;0.76;0.71;;;;;;;0.13;63.89;100324.57;436330;120;923028;-76
2022/01/16 02:42:17;;;;;;;1.48;1.11;;;;;;;0.14;63.92;100330.78;435115;119;922698;-77
2022/01/16 02:43:29;;;;;;;1.55;0.86;;;;;;;0.16;63.99;100342.20;439795;119;930703;-77
2022/01/16 02:45:33;;;;;;;1.34;0.94;;;;;;;0.19;63.92;100336.52;439304;119;922820;-77
2022/01/16 02:46:36;;;;;;;1.38;0.84;;;;;;;0.21;63.83;100343.42;438200;119;923589;-77
2022/01/16 02:47:40;;;;;;;1.48;1.09;;;;;;;0.22;63.75;100346.95;440000;120;922774;-76
2022/01/16 02:48:49;;;;;;;0.99;0.89;;;;;;;0.23;63.61;100345.92;444265;117;922619;-76
2022/01/16 02:49:53;;;;;;;1.24;0.98;;;;;;;0.23;63.57;100341.41;443919;116;923242;-76
2022/01/16 02:50:57;;;;;;;1.32;1.17;;;;;;;0.23;63.55;100351.29;444441;118;923897;-77
2022/01/16 02:52:06;;;;;;;0.68;0.62;;;;;;;0.23;63.50;100348.61;444867;117;922474;-77
2022/01/16 02:53:11;;;;;;;1.41;1.07;;;;;;;0.23;63.42;100345.92;435894;119;922603;-76
2022/01/16 02:54:14;;;;;;;1.05;0.95;;;;;;;0.23;63.41;100344.09;432755;119;923184;-77
2022/01/16 02:55:21;;;;;;;1.26;0.96;;;;;;;0.24;63.35;100331.53;437015;120;922503;-76
2022/01/16 02:56:24;;;;;;;1.48;0.99;;;;;;;0.23;63.27;100338.73;434914;122;923368;-76
2022/01/16 02:57:29;;;;;;;1.09;0.74;;;;;;;0.24;63.28;100342.26;438930;119;922655;-76
2022/01/16 02:58:32;;;;;;;0.74;0.71;;;;;;;0.23;63.28;100341.41;438474;119;930508;-76
2022/01/16 02:59:37;;;;;;;1.56;0.99;;;;;;;0.24;63.28;100344.94;444601;119;930288;-76
2022/01/16 03:00:41;;;;;;;1.09;0.97;;;;;;;0.24;63.20;100361.88;443757;119;930205;-76
2022/01/16 03:01:45;;;;;;;1.05;0.95;;;;;;;0.23;63.24;100360.17;444795;118;922800;-75
2022/01/16 03:02:49;;;;;;;0.98;0.95;;;;;;;0.24;63.09;100361.88;445150;118;922500;-75
2022/01/16 03:03:53;;;;;;;0.61;0.61;;;;;;;0.24;62.73;100363.70;444592;119;923145;-76
2022/01/16 03:04:56;;;;;;;0.91;0.68;;;;;;;0.23;62.70;100362.86;444721;117;922539;-74
2022/01/16 03:06:00;;;;;;;1.03;0.81;;;;;;;0.21;62.68;100356.83;444983;118;922566;-76
2022/01/16 03:07:05;;;;;;;0.60;0.60;;;;;;;0.20;62.75;100355.14;445001;118;922528;-75
2022/01/16 03:08:08;;;;;;;0.62;0.60;;;;;;;0.20;62.76;100356.97;444942;119;922513;-75
2022/01/16 03:09:11;;;;;;;0.53;0.53;;;;;;;0.19;62.62;100366.01;444911;117;923007;-75
2022/01/16 03:11:35;;;;;;;0.64;0.63;;;;;;;0.17;62.53;100363.47;436574;120;922786;-76
2022/01/16 03:12:31;;;;;;;0.90;0.48;;;;;;;0.17;62.49;100363.47;435988;119;922645;-75
2022/01/16 03:13:34;;;;;;;0.86;0.71;;;;;;;0.17;62.43;100368.83;432563;120;923426;-75
2022/01/16 03:14:38;;;;;;;0.49;0.49;;;;;;;0.16;62.43;100371.69;436935;120;922740;-75
2022/01/16 03:15:42;;;;;;;2.87;0.62;;;;;;;0.15;62.52;100373.53;445031;119;922819;-74
2022/01/16 03:16:50;;;;;;;0.50;0.49;;;;;;;0.15;62.46;100373.53;444397;117;922601;-75
2022/01/16 03:21:54;;;;;;;0.62;0.60;;;;;;;0.14;62.17;100358.44;444493;117;922662;-76
2022/01/16 03:22:57;;;;;;;0.55;0.54;;;;;;;0.13;62.29;100369.30;445025;118;922538;-77
2022/01/16 03:24:02;;;;;;;1.37;0.81;;;;;;;0.12;62.37;100368.45;445335;118;930248;-75
2022/01/16 03:25:05;;;;;;;0.97;0.83;;;;;;;0.14;62.23;100371.83;444684;116;922586;-76
2022/01/16 03:26:09;;;;;;;1.19;0.80;;;;;;;0.16;62.19;100369.02;438761;119;923537;-74
2022/01/16 03:27:19;;;;;;;0.72;0.70;;;;;;;0.16;62.12;100377.89;439612;119;922969;-75
2022/01/16 03:28:25;;;;;;;0.75;0.60;;;;;;;0.18;62.05;100369.68;437845;117;923407;-75
2022/01/16 03:29:29;;;;;;;0.59;0.59;;;;;;;0.18;62.07;100375.88;436877;119;930405;-75
2022/01/16 03:30:33;;;;;;;1.09;0.76;;;;;;;0.17;61.98;100378.71;436840;120;922951;-76
2022/01/16 03:31:36;;;;;;;0.62;0.62;;;;;;;0.17;61.99;100382.23;438279;120;922647;-74
2022/01/16 03:32:39;;;;;;;0.98;0.63;;;;;;;0.19;61.95;100382.09;438313;120;930149;-75
2022/01/16 03:33:43;;;;;;;0.72;0.70;;;;;;;0.18;61.85;100383.08;436557;120;922602;-74
2022/01/16 03:34:46;;;;;;;0.66;0.64;;;;;;;0.19;61.63;100388.30;436782;120;922678;-76
2022/01/16 03:35:51;;;;;;;0.79;0.63;;;;;;;0.17;61.65;100378.71;437228;121;922549;-75
2022/01/16 03:36:55;;;;;;;1.58;0.89;;;;;;;0.17;61.51;100389.44;437356;121;922985;-76
2022/01/16 03:37:58;;;;;;;0.74;0.70;;;;;;;0.17;61.55;100387.60;436815;120;930229;-76
2022/01/16 03:39:03;;;;;;;1.06;0.62;;;;;;;0.16;61.67;100385.94;437185;120;922962;-76
2022/01/16 03:40:10;;;;;;;0.83;0.77;;;;;;;0.15;61.30;100397.66;438105;121;922660;-76
2022/01/16 03:41:13;;;;;;;0.72;0.69;;;;;;;0.17;61.50;100392.12;437049;119;923094;-76
2022/01/16 03:42:23;;;;;;;0.68;0.66;;;;;;;0.17;61.56;100403.69;437362;120;922683;-76
2022/01/16 03:43:21;;;;;;;0.74;0.72;;;;;;;0.18;61.62;100399.17;436629;121;930310;-76
2022/01/16 03:44:25;;;;;;;1.70;0.98;;;;;;;0.18;61.66;100402.70;437774;121;922646;-74
2022/01/16 03:45:28;;;;;;;1.25;0.81;;;;;;;0.21;61.62;100406.92;436570;119;922631;-77
2022/01/16 03:46:34;;;;;;;0.82;0.58;;;;;;;0.22;61.51;100398.70;440061;118;923096;-77
2022/01/16 03:47:38;;;;;;;0.64;0.63;;;;;;;0.22;61.52;100401.38;436326;121;923240;-75
2022/01/16 03:48:41;;;;;;;0.74;0.66;;;;;;;0.23;61.45;100399.55;435699;120;922703;-76
2022/01/16 03:49:44;;;;;;;1.06;0.80;;;;;;;0.24;61.35;100412.81;435985;120;923287;-76
2022/01/16 03:50:48;;;;;;;0.70;0.69;;;;;;;0.25;61.31;100414.50;436105;121;922577;-76
2022/01/16 03:51:53;;;;;;;0.96;0.62;;;;;;;0.24;61.28;100415.50;436453;121;922673;-75
2022/01/16 03:52:56;;;;;;;0.66;0.66;;;;;;;0.25;61.30;100419.86;435688;121;930188;-75
2022/01/16 03:53:59;;;;;;;0.92;0.78;;;;;;;0.26;61.27;100413.52;435687;120;922634;-74
2022/01/16 03:55:04;;;;;;;0.74;0.72;;;;;;;0.27;60.91;100417.05;435920;119;923002;-77
2022/01/16 03:56:08;;;;;;;0.75;0.57;;;;;;;0.27;60.84;100423.25;436636;121;922483;-75
2022/01/16 03:57:11;;;;;;;1.41;0.78;;;;;;;0.28;60.95;100410.66;434955;119;930204;-75
2022/01/16 03:58:15;;;;;;;0.75;0.75;;;;;;;0.28;61.01;100419.55;435121;120;923467;-77
2022/01/16 03:59:18;;;;;;;0.96;0.62;;;;;;;0.29;60.97;100413.19;435308;121;922611;-76
2022/01/16 04:00:22;;;;;;;1.06;0.98;;;;;;;0.30;60.97;100414.89;428158;123;922692;-76
2022/01/16 04:01:25;;;;;;;0.81;0.57;;;;;;;0.31;60.94;100419.26;428013;121;930777;-75
2022/01/16 04:02:29;;;;;;;0.79;0.50;;;;;;;0.31;60.88;100423.77;435211;119;930290;-77
2022/01/16 04:03:32;;;;;;;0.59;0.57;;;;;;;0.31;60.73;100411.21;435333;121;930187;-76
2022/01/16 04:04:36;;;;;;;0.78;0.78;;;;;;;0.31;60.66;100410.37;436022;121;930288;-77
2022/01/16 04:05:40;;;;;;;0.51;0.50;;;;;;;0.30;60.54;100411.36;435435;119;922983;-75
2022/01/16 04:06:43;;;;;;;0.63;0.58;;;;;;;0.29;60.51;100421.23;435458;120;922557;-75
2022/01/16 04:07:46;;;;;;;0.98;0.70;;;;;;;0.27;60.57;100407.16;436113;121;923491;-76
2022/01/16 04:08:51;;;;;;;0.61;0.57;;;;;;;0.29;60.52;100409.66;436294;121;923076;-75
2022/01/16 04:09:54;;;;;;;0.70;0.70;;;;;;;0.29;60.27;100409.66;434380;119;922703;-75
2022/01/16 04:10:59;;;;;;;0.79;0.79;;;;;;;0.29;60.36;100412.34;435180;120;922569;-76
2022/01/16 04:12:03;;;;;;;0.74;0.74;;;;;;;0.29;60.02;100420.39;435189;121;923080;-74
2022/01/16 04:13:08;;;;;;;0.90;0.80;;;;;;;0.29;60.00;100420.39;434897;121;930307;-76
2022/01/16 04:14:16;;;;;;;0.74;0.53;;;;;;;0.28;60.08;100419.55;435074;121;922731;-73
2022/01/16 04:16:23;;;;;;;0.86;0.77;;;;;;;0.27;59.78;100415.20;435260;119;922626;-78
2022/01/16 04:17:26;;;;;;;0.88;0.81;;;;;;;0.28;59.79;100427.59;435697;121;922840;-76
2022/01/16 04:18:30;;;;;;;1.92;1.26;;;;;;;0.29;59.77;100420.39;435340;120;923080;-76
2022/01/16 04:19:35;;;;;;;2.28;1.09;;;;;;;0.29;59.85;100431.12;435492;121;922689;-74
2022/01/16 04:20:38;;;;;;;1.46;1.09;;;;;;;0.30;59.90;100427.45;436174;121;930350;-77
2022/01/16 04:21:41;;;;;;;1.36;0.94;;;;;;;0.30;59.82;100432.81;435699;121;922513;-75
2022/01/16 04:22:45;;;;;;;1.02;0.86;;;;;;;0.30;59.86;100430.98;435759;121;922772;-75
2022/01/16 04:23:50;;;;;;;1.09;0.99;;;;;;;0.31;59.83;100440.71;435033;120;930283;-77
2022/01/16 04:24:53;;;;;;;0.85;0.75;;;;;;;0.35;59.66;100441.23;436178;121;923420;-76
2022/01/16 04:25:56;;;;;;;0.92;0.67;;;;;;;0.36;59.67;100441.09;436242;121;930191;-76
2022/01/16 04:27:00;;;;;;;0.71;0.68;;;;;;;0.36;59.46;100442.93;440399;118;923092;-74
2022/01/16 04:28:04;;;;;;;0.64;0.62;;;;;;;0.35;59.36;100441.23;436337;119;923176;-77
2022/01/16 04:29:07;;;;;;;0.72;0.68;;;;;;;0.35;59.38;100443.92;447969;117;923233;-76
2022/01/16 04:30:11;;;;;;;0.88;0.56;;;;;;;0.34;59.41;100443.08;451078;117;922524;-76
2022/01/16 04:31:15;;;;;;;0.60;0.60;;;;;;;0.35;59.44;100446.60;450478;116;930302;-76
2022/01/16 04:32:19;;;;;;;1.35;0.88;;;;;;;0.34;59.36;100442.23;450116;117;922920;-74
2022/01/16 04:33:22;;;;;;;0.86;0.69;;;;;;;0.34;59.35;100448.44;450811;117;930089;-75
2022/01/16 04:34:26;;;;;;;0.81;0.62;;;;;;;0.34;59.31;100445.75;450986;117;930178;-76
2022/01/16 04:35:29;;;;;;;0.66;0.66;;;;;;;0.34;59.21;100461.00;450868;116;930286;-76
2022/01/16 04:36:32;;;;;;;0.99;0.61;;;;;;;0.34;59.03;100453.80;450280;115;922559;-76
2022/01/16 04:37:36;;;;;;;1.16;0.89;;;;;;;0.35;59.01;100460.86;449635;117;930327;-76
2022/01/16 04:38:45;;;;;;;1.31;0.87;;;;;;;0.34;58.85;100459.16;450645;115;923100;-76
2022/01/16 04:39:53;;;;;;;0.64;0.60;;;;;;;0.35;58.87;100457.33;449996;116;922570;-75
2022/01/16 04:43:51;;;;;;;1.24;0.76;;;;;;;0.36;58.19;100465.23;450313;115;922730;-74
2022/01/16 04:44:54;;;;;;;0.94;0.74;;;;;;;0.36;58.25;100475.95;450431;117;922649;-75
2022/01/16 04:45:58;;;;;;;0.88;0.77;;;;;;;0.36;58.06;100465.23;450643;115;922844;-76
2022/01/16 04:47:01;;;;;;;1.22;0.91;;;;;;;0.36;58.00;100465.23;449762;115;922523;-78
2022/01/16 04:48:05;;;;;;;0.68;0.66;;;;;;;0.37;58.12;100464.23;449625;115;922766;-77
2022/01/16 04:49:08;;;;;;;0.68;0.64;;;;;;;0.38;58.13;100476.66;450813;117;922749;-76
2022/01/16 04:50:13;;;;;;;1.67;0.91;;;;;;;0.38;58.04;100476.66;450744;117;922506;-75
2022/01/16 04:51:17;;;;;;;0.78;0.60;;;;;;;0.38;58.09;100478.50;449851;117;923078;-76
2022/01/16 04:52:20;;;;;;;0.72;0.72;;;;;;;0.39;58.03;100475.64;449784;116;922620;-73
2022/01/16 04:53:24;;;;;;;1.89;0.82;;;;;;;0.40;57.99;100473.80;450368;117;922984;-76
2022/01/16 04:54:27;;;;;;;0.98;0.74;;;;;;;0.41;57.83;100483.55;450340;116;922581;-78
2022/01/16 04:55:31;;;;;;;1.16;0.69;;;;;;;0.41;57.44;100481.70;450398;116;922617;-76
2022/01/16 04:56:34;;;;;;;0.97;0.67;;;;;;;0.41;57.36;100478.17;450324;116;930328;-75
2022/01/16 04:57:38;;;;;;;1.54;0.57;;;;;;;0.39;57.20;100489.05;450956;117;923397;-76
2022/01/16 04:58:42;;;;;;;0.71;0.71;;;;;;;0.39;57.07;100483.69;450675;117;930125;-74
2022/01/16 04:59:45;;;;;;;1.06;0.68;;;;;;;0.39;57.11;100490.88;449373;116;930100;-77
2022/01/16 05:00:49;;;;;;;0.58;0.58;;;;;;;0.39;57.05;100498.93;449105;117;922643;-76
2022/01/16 05:01:52;;;;;;;1.19;0.60;;;;;;;0.38;57.06;100498.12;449965;117;930168;-76
2022/01/16 05:02:55;;;;;;;0.70;0.68;;;;;;;0.39;56.94;100501.61;449712;115;930572;-75
2022/01/16 05:03:59;;;;;;;0.62;0.62;;;;;;;0.39;56.99;100504.30;450302;116;923393;-76
2022/01/16 05:05:03;;;;;;;1.39;0.91;;;;;;;0.38;57.04;100511.53;450745;117;922827;-76
2022/01/16 05:06:07;;;;;;;1.19;0.82;;;;;;;0.39;57.00;100506.97;451147;117;923068;-78
2022/01/16 05:07:10;;;;;;;0.98;0.85;;;;;;;0.38;56.50;100508.84;449546;116;922957;-76
2022/01/16 05:08:14;;;;;;;0.89;0.84;;;;;;;0.39;56.56;100515.02;449632;116;923502;-75
2022/01/16 05:09:17;;;;;;;1.07;0.98;;;;;;;0.40;56.48;100514.03;442401;118;922723;-75
2022/01/16 05:10:20;;;;;;;0.86;0.75;;;;;;;0.41;56.42;100519.25;442702;117;923039;-76
2022/01/16 05:11:26;;;;;;;0.73;0.73;;;;;;;0.43;56.38;100521.80;449957;115;930705;-76
2022/01/16 05:12:36;;;;;;;1.61;0.70;;;;;;;0.44;56.52;100525.32;449657;117;922607;-76
2022/01/16 05:17:28;;;;;;;1.07;0.94;;;;;;;0.48;56.25;100530.23;449574;117;922694;-76
2022/01/16 05:18:32;;;;;;;1.46;1.07;;;;;;;0.47;56.16;100531.22;450771;117;923004;-74
2022/01/16 05:19:35;;;;;;;1.18;0.63;;;;;;;0.49;56.16;100528.39;449763;117;923254;-78
2022/01/16 05:20:39;;;;;;;1.00;0.70;;;;;;;0.47;56.26;100528.53;449738;115;922661;-75
2022/01/16 05:21:42;;;;;;;1.09;0.82;;;;;;;0.48;56.34;100532.06;450428;116;922602;-76
2022/01/16 05:22:45;;;;;;;2.00;1.16;;;;;;;0.49;56.38;100536.44;450758;117;922501;-77
2022/01/16 05:23:49;;;;;;;3.14;1.47;;;;;;;0.49;56.45;100533.75;450455;115;930316;-76
2022/01/16 05:24:52;;;;;;;2.39;1.44;;;;;;;0.49;56.46;100541.80;448736;117;922669;-75
2022/01/16 05:25:56;;;;;;;3.14;1.81;;;;;;;0.49;56.48;100539.13;451094;117;930371;-77
2022/01/16 05:27:01;;;;;;;1.72;1.27;;;;;;;0.49;56.68;100541.80;449626;116;922747;-75
2022/01/16 05:28:04;;;;;;;2.07;1.57;;;;;;;0.50;56.73;100543.50;450027;117;922582;-75
2022/01/16 05:29:10;;;;;;;3.27;2.20;;;;;;;0.50;56.76;100541.63;450469;117;922555;-74
2022/01/16 05:30:13;;;;;;;2.45;1.75;;;;;;;0.50;56.85;100549.67;450011;117;930417;-76
2022/01/16 05:31:17;;;;;;;2.75;1.99;;;;;;;0.51;56.93;100543.33;449604;117;922569;-76
2022/01/16 05:32:20;;;;;;;2.36;2.03;;;;;;;0.52;57.07;100552.22;445114;117;922727;-75
2022/01/16 05:33:24;;;;;;;4.36;2.30;;;;;;;0.53;57.25;100554.75;445395;117;930515;-76
2022/01/16 05:34:29;;;;;;;3.67;2.42;;;;;;;0.56;57.34;100553.59;450302;117;930812;-74
2022/01/16 05:35:32;;;;;;;3.06;1.98;;;;;;;0.56;57.34;100553.59;449146;116;930448;-75
2022/01/16 05:36:36;;;;;;;2.66;1.81;;;;;;;0.57;57.42;100557.97;449166;116;922949;-76
2022/01/16 05:37:39;;;;;;;2.50;1.40;;;;;;;0.55;57.43;100563.48;449340;117;930379;-76
2022/01/16 05:38:42;;;;;;;2.83;1.75;;;;;;;0.55;57.43;100558.11;449666;117;922626;-76
2022/01/16 05:39:47;;;;;;;2.27;1.53;;;;;;;0.52;57.46;100558.43;449394;117;922641;-75
2022/01/16 05:40:52;;;;;;;2.03;1.24;;;;;;;0.51;57.57;100571.98;440448;118;923162;-75
2022/01/16 05:41:56;;;;;;;3.64;1.64;;;;;;;0.48;57.63;100567.78;449017;115;923105;-77
2022/01/16 05:42:59;;;;;;;1.80;1.14;;;;;;;0.47;57.69;100570.61;457620;114;922585;-76
2022/01/16 05:44:03;;;;;;;1.85;1.47;;;;;;;0.45;57.81;100570.75;456220;113;922712;-76
2022/01/16 05:45:07;;;;;;;2.08;1.37;;;;;;;0.44;57.96;100562.87;456205;114;922856;-75